Cala Paguro — D5KY9 — position and weather

sailwx.info

Track history (hours):
 
Tides and Currents Weather Stations Pressure Air Temp Water Temp Dewpoint Dewpoint Depression Visibility Wind Speed Wind Dir Waves Ship Positions

Cala Paguro

Last reported at 2017-Sep-21 18:02 UTC. Time now 2017-Sep-22 02:50 UTC.
Position N 35°10' W 006°47'.

Length 172 m; draft 6.5 m.

Type: Cargo ship. MMSI: 636017440.

Date/timePositionNaut miles runAvg speedWind from/ knotsBaromVisibWave heightAir tempDewpointWater temp
2017-Sep-21 18:02N 35°10' W 006°47'615.6
2017-Sep-21 17:38N 35°06' W 006°53'415.2
2017-Sep-21 17:23N 35°03' W 006°57'44115.2
2017-Sep-20 12:20N 29°25' W 012°31'3515.2
2017-Sep-20 10:00N 28°56' W 012°55'1614.7
2017-Sep-20 08:55N 28°44' W 013°06'615.0
2017-Sep-20 08:31N 28°39' W 013°10'815.0
2017-Sep-20 08:00N 28°33' W 013°15'714.8
2017-Sep-20 07:31N 28°27' W 013°20'714.6
2017-Sep-20 07:01N 28°21' W 013°26'714.4
2017-Sep-20 06:31N 28°15' W 013°30'714.2
2017-Sep-20 05:59N 28°09' W 013°35'713.7
2017-Sep-20 05:30N 28°04' W 013°39'714.6
2017-Sep-20 05:00N 27°58' W 013°44'714.8
2017-Sep-20 04:30N 27°52' W 013°49'714.7
2017-Sep-20 04:01N 27°46' W 013°54'714.4
2017-Sep-20 03:30N 27°39' W 013°58'714.7
2017-Sep-20 03:00N 27°33' W 014°02'714.7
2017-Sep-20 02:30N 27°27' W 014°07'714.9
2017-Sep-20 02:00N 27°21' W 014°11'714.8
2017-Sep-20 01:30N 27°14' W 014°16'714.7
2017-Sep-20 01:00N 27°08' W 014°20'714.6
2017-Sep-20 00:30N 27°02' W 014°25'714.7
2017-Sep-20 00:00N 26°56' W 014°30'714.7
2017-Sep-19 23:30N 26°50' W 014°34'814.4
2017-Sep-19 22:57N 26°43' W 014°38'614.1
2017-Sep-19 22:30N 26°38' W 014°42'913.9
2017-Sep-19 21:53N 26°31' W 014°47'713.5
2017-Sep-19 21:21N 26°25' W 014°52'513.4
2017-Sep-19 20:57N 26°20' W 014°55'713.3
2017-Sep-19 20:24N 26°14' W 014°59'513.4
2017-Sep-19 20:00N 26°09' W 015°02'913.3
2017-Sep-19 19:20N 26°02' W 015°08'812.9
2017-Sep-19 18:41N 25°55' W 015°13'412.8
2017-Sep-19 18:23N 25°52' W 015°15'513.8
2017-Sep-19 17:59N 25°47' W 015°19'713.7
2017-Sep-19 17:28N 25°41' W 015°23'814.3
2017-Sep-19 16:55N 25°34' W 015°28'614.2
2017-Sep-19 16:30N 25°30' W 015°31'714.0
2017-Sep-19 15:59N 25°24' W 015°36'713.7
2017-Sep-19 15:30N 25°18' W 015°40'913.5
2017-Sep-19 14:51N 25°11' W 015°45'1213.3
2017-Sep-19 13:58N 25°01' W 015°53'913.8
2017-Sep-19 13:19N 24°54' W 015°58'513.7
2017-Sep-19 12:57N 24°49' W 016°01'613.9
2017-Sep-19 12:29N 24°44' W 016°04'713.9
2017-Sep-19 12:01N 24°37' W 016°06'714.1
2017-Sep-19 11:29N 24°30' W 016°10'714.3
2017-Sep-19 11:01N 24°24' W 016°12'1214.4
2017-Sep-19 10:11N 24°13' W 016°18'614.4
2017-Sep-19 09:47N 24°08' W 016°20'514.4
2017-Sep-19 09:27N 24°03' W 016°22'814.6
2017-Sep-19 08:53N 23°56' W 016°26'614.6
2017-Sep-19 08:30N 23°51' W 016°28'  
2017-Sep-16 14:40N 08°17' W 014°37'315.5
2017-Sep-16 14:30N 08°16' W 014°35'  
2017-Sep-14 10:15N 04°03' W 003°21'513.3
2017-Sep-14 09:50N 04°02' W 003°15'513.3
2017-Sep-14 09:28N 04°02' W 003°10'613.3
2017-Sep-14 09:00N 04°03' W 003°04'813.7
2017-Sep-14 08:25N 04°06' W 002°57'613.8
2017-Sep-14 07:59N 04°09' W 002°52'713.9
2017-Sep-14 07:29N 04°12' W 002°46'714.4
2017-Sep-14 07:00N 04°16' W 002°40'815.1
2017-Sep-14 06:30N 04°19' W 002°33'714.4
2017-Sep-14 06:00N 04°22' W 002°26'714.6
2017-Sep-14 05:30N 04°26' W 002°20'714.9
2017-Sep-14 05:00N 04°30' W 002°14'714.9
2017-Sep-14 04:30N 04°34' W 002°07'815.3
2017-Sep-14 04:00N 04°37' W 002°00'914.9
2017-Sep-14 03:24N 04°42' W 001°53'1413.3
2017-Sep-14 02:21N 04°52' W 001°43'2 2.6
2017-Sep-14 01:27N 04°53' W 001°44'0 0.1
2017-Sep-14 01:00N 04°53' W 001°44'0 0.0
2017-Sep-14 00:28N 04°53' W 001°44'0 0.0
2017-Sep-13 23:54N 04°53' W 001°44'0 0.0
2017-Sep-13 23:24N 04°53' W 001°44'0 0.0
2017-Sep-13 22:57N 04°53' W 001°44'0 0.0
2017-Sep-13 22:30N 04°53' W 001°44'0 0.0
2017-Sep-13 22:00N 04°53' W 001°44'3 0.2
2017-Sep-13 06:02N 04°52' W 001°41'0 0.0
2017-Sep-13 05:32N 04°52' W 001°41'0 0.1
2017-Sep-13 05:14N 04°52' W 001°41'0 0.0
2017-Sep-13 04:23N 04°52' W 001°41'0 0.4
2017-Sep-13 03:57N 04°52' W 001°41'5 8.2
2017-Sep-13 03:22N 04°52' W 001°36'1114.1
2017-Sep-13 02:34N 04°48' W 001°25'414.3
2017-Sep-13 02:15N 04°49' W 001°21'414.3
2017-Sep-13 02:00N 04°50' W 001°17'1014.2
2017-Sep-13 01:16N 04°53' W 001°08'514.1
2017-Sep-13 00:56N 04°54' W 001°03'9 8.3
2017-Sep-12 23:49N 04°57' W 000°54'1 4.2
2017-Sep-12 23:29N 04°57' W 000°53'3711.5
2017-Sep-12 20:16N 05°10' W 000°18'413.8
2017-Sep-12 20:00N 05°12' W 000°15'713.9
2017-Sep-12 19:30N 05°15' W 000°09'713.8
2017-Sep-12 19:00N 05°19' W 000°03'713.7
2017-Sep-12 18:30N 05°22' E 000°03'713.8
2017-Sep-12 18:00N 05°26' E 000°09'713.4
2017-Sep-12 17:31N 05°29' E 000°15'713.9
2017-Sep-12 17:00N 05°29' E 000°22'713.9
2017-Sep-12 16:30N 05°29' E 000°29'  
Track history (hours):
 
Tides and Currents Weather Stations Pressure Air Temp Water Temp Dewpoint Dewpoint Depression Visibility Wind Speed Wind Dir Waves Ship Positions

Cala Paguro

Last reported at 2017-Sep-21 18:02 UTC. Time now 2017-Sep-22 02:50 UTC.
Position N 35°10' W 006°47'.

Length 172 m; draft 6.5 m.

Type: Cargo ship. MMSI: 636017440.

Date/timePositionNaut miles runAvg speedWind from/ knotsBaromVisibWave heightAir tempDewpointWater temp
2017-Sep-21 18:02N 35°10' W 006°47'615.6
2017-Sep-21 17:38N 35°06' W 006°53'415.2
2017-Sep-21 17:23N 35°03' W 006°57'44115.2
2017-Sep-20 12:20N 29°25' W 012°31'3515.2
2017-Sep-20 10:00N 28°56' W 012°55'1614.7
2017-Sep-20 08:55N 28°44' W 013°06'615.0
2017-Sep-20 08:31N 28°39' W 013°10'815.0
2017-Sep-20 08:00N 28°33' W 013°15'714.8
2017-Sep-20 07:31N 28°27' W 013°20'714.6
2017-Sep-20 07:01N 28°21' W 013°26'714.4
2017-Sep-20 06:31N 28°15' W 013°30'714.2
2017-Sep-20 05:59N 28°09' W 013°35'713.7
2017-Sep-20 05:30N 28°04' W 013°39'714.6
2017-Sep-20 05:00N 27°58' W 013°44'714.8
2017-Sep-20 04:30N 27°52' W 013°49'714.7
2017-Sep-20 04:01N 27°46' W 013°54'714.4
2017-Sep-20 03:30N 27°39' W 013°58'714.7
2017-Sep-20 03:00N 27°33' W 014°02'714.7
2017-Sep-20 02:30N 27°27' W 014°07'714.9
2017-Sep-20 02:00N 27°21' W 014°11'714.8
2017-Sep-20 01:30N 27°14' W 014°16'714.7
2017-Sep-20 01:00N 27°08' W 014°20'714.6
2017-Sep-20 00:30N 27°02' W 014°25'714.7
2017-Sep-20 00:00N 26°56' W 014°30'714.7
2017-Sep-19 23:30N 26°50' W 014°34'814.4
2017-Sep-19 22:57N 26°43' W 014°38'614.1
2017-Sep-19 22:30N 26°38' W 014°42'913.9
2017-Sep-19 21:53N 26°31' W 014°47'713.5
2017-Sep-19 21:21N 26°25' W 014°52'513.4
2017-Sep-19 20:57N 26°20' W 014°55'713.3
2017-Sep-19 20:24N 26°14' W 014°59'513.4
2017-Sep-19 20:00N 26°09' W 015°02'913.3
2017-Sep-19 19:20N 26°02' W 015°08'812.9
2017-Sep-19 18:41N 25°55' W 015°13'412.8
2017-Sep-19 18:23N 25°52' W 015°15'513.8
2017-Sep-19 17:59N 25°47' W 015°19'713.7
2017-Sep-19 17:28N 25°41' W 015°23'814.3
2017-Sep-19 16:55N 25°34' W 015°28'614.2
2017-Sep-19 16:30N 25°30' W 015°31'714.0
2017-Sep-19 15:59N 25°24' W 015°36'713.7
2017-Sep-19 15:30N 25°18' W 015°40'913.5
2017-Sep-19 14:51N 25°11' W 015°45'1213.3
2017-Sep-19 13:58N 25°01' W 015°53'913.8
2017-Sep-19 13:19N 24°54' W 015°58'513.7
2017-Sep-19 12:57N 24°49' W 016°01'613.9
2017-Sep-19 12:29N 24°44' W 016°04'713.9
2017-Sep-19 12:01N 24°37' W 016°06'714.1
2017-Sep-19 11:29N 24°30' W 016°10'714.3
2017-Sep-19 11:01N 24°24' W 016°12'1214.4
2017-Sep-19 10:11N 24°13' W 016°18'614.4
2017-Sep-19 09:47N 24°08' W 016°20'514.4
2017-Sep-19 09:27N 24°03' W 016°22'814.6
2017-Sep-19 08:53N 23°56' W 016°26'614.6
2017-Sep-19 08:30N 23°51' W 016°28'  
2017-Sep-16 14:40N 08°17' W 014°37'315.5
2017-Sep-16 14:30N 08°16' W 014°35'  
2017-Sep-14 10:15N 04°03' W 003°21'513.3
2017-Sep-14 09:50N 04°02' W 003°15'513.3
2017-Sep-14 09:28N 04°02' W 003°10'613.3
2017-Sep-14 09:00N 04°03' W 003°04'813.7
2017-Sep-14 08:25N 04°06' W 002°57'613.8
2017-Sep-14 07:59N 04°09' W 002°52'713.9
2017-Sep-14 07:29N 04°12' W 002°46'714.4
2017-Sep-14 07:00N 04°16' W 002°40'815.1
2017-Sep-14 06:30N 04°19' W 002°33'714.4
2017-Sep-14 06:00N 04°22' W 002°26'714.6
2017-Sep-14 05:30N 04°26' W 002°20'714.9
2017-Sep-14 05:00N 04°30' W 002°14'714.9
2017-Sep-14 04:30N 04°34' W 002°07'815.3
2017-Sep-14 04:00N 04°37' W 002°00'914.9
2017-Sep-14 03:24N 04°42' W 001°53'1413.3
2017-Sep-14 02:21N 04°52' W 001°43'2 2.6
2017-Sep-14 01:27N 04°53' W 001°44'0 0.1
2017-Sep-14 01:00N 04°53' W 001°44'0 0.0
2017-Sep-14 00:28N 04°53' W 001°44'0 0.0
2017-Sep-13 23:54N 04°53' W 001°44'0 0.0
2017-Sep-13 23:24N 04°53' W 001°44'0 0.0
2017-Sep-13 22:57N 04°53' W 001°44'0 0.0
2017-Sep-13 22:30N 04°53' W 001°44'0 0.0
2017-Sep-13 22:00N 04°53' W 001°44'3 0.2
2017-Sep-13 06:02N 04°52' W 001°41'0 0.0
2017-Sep-13 05:32N 04°52' W 001°41'0 0.1
2017-Sep-13 05:14N 04°52' W 001°41'0 0.0
2017-Sep-13 04:23N 04°52' W 001°41'0 0.4
2017-Sep-13 03:57N 04°52' W 001°41'5 8.2
2017-Sep-13 03:22N 04°52' W 001°36'1114.1
2017-Sep-13 02:34N 04°48' W 001°25'414.3
2017-Sep-13 02:15N 04°49' W 001°21'414.3
2017-Sep-13 02:00N 04°50' W 001°17'1014.2
2017-Sep-13 01:16N 04°53' W 001°08'514.1
2017-Sep-13 00:56N 04°54' W 001°03'9 8.3
2017-Sep-12 23:49N 04°57' W 000°54'1 4.2
2017-Sep-12 23:29N 04°57' W 000°53'3711.5
2017-Sep-12 20:16N 05°10' W 000°18'413.8
2017-Sep-12 20:00N 05°12' W 000°15'713.9
2017-Sep-12 19:30N 05°15' W 000°09'713.8
2017-Sep-12 19:00N 05°19' W 000°03'713.7
2017-Sep-12 18:30N 05°22' E 000°03'713.8
2017-Sep-12 18:00N 05°26' E 000°09'713.4
2017-Sep-12 17:31N 05°29' E 000°15'713.9
2017-Sep-12 17:00N 05°29' E 000°22'713.9
2017-Sep-12 16:30N 05°29' E 000°29'  

Dump ship's entire track history